Honeywell Corners, New York
Current Conditions -  °F | °C
As of 1:15 PM on Friday 21 Nov 2014 (Local Time) from KNY0 Reporting Station
Scattered Clouds Scattered Clouds  
Wind Chill: -10°   Ceiling: Unl
Heat Index: -4°   Visibility: 10mi
Dew Point: -14°   Wind: 13mph
Humidity: 46%   Direction: 310°NW
Pressure: 30.25"   Gusts: 24mph
Location:  43.0744°N, 74.1473°W
Report Text: KNY0 211815Z AUTO 31011G21KT 10SM SCT040 M04/M14 A3025 RMK AO2 T10381139
Loading
Personal Weather Stations






























Interactive Weather Map New forecast layout! Learn more

10-Day Weather Forecast

Advertisements
Track Severe Weather on mobile